ADDS TAF Data INFO

IDs: Format: Raw Decoded Include METARs

Data at: 1941 UTC 25 Oct 2014

Region: TOP
KATL 251733Z 2518/2624 34007KT P6SM SKC
  FM260200 31004KT P6SM FEW025
  FM261300 33008KT P6SM FEW250
  FM261800 32006KT P6SM SKC


KBOS 251735Z 2518/2624 26007KT P6SM FEW050
  FM260300 23012KT P6SM SCT050
  FM261200 27011G20KT P6SM SCT200
  FM261800 28015G25KT P6SM BKN050


KBWI 251730Z 2518/2624 26010KT P6SM FEW200
  FM261600 29015G23KT P6SM SKC
  FM262300 30012KT P6SM SKC


KCLE 251903Z 2519/2624 29010G20KT P6SM SKC
  FM260600 29008KT P6SM SKC
  FM261400 29010G20KT P6SM SKC
  FM261900 28008KT P6SM SKC


KCLT 251731Z 2518/2618 28003KT P6SM FEW250
  FM252000 26004KT P6SM FEW250
  FM260000 30003KT P6SM SKC
  FM261400 32007KT P6SM SKC


KCVG 251731Z 2518/2624 22009KT P6SM SCT023
  FM260000 30004KT P6SM SKC
  FM261300 30007KT P6SM SKC


KDCA 251730Z 2518/2618 26010KT P6SM FEW200
  FM260800 29010KT P6SM FEW250
  FM261500 30013G25KT P6SM SKC


KDEN 251758Z 2518/2624 14008KT P6SM SKC
  FM252200 10008KT P6SM SKC
  FM260300 15008KT P6SM SKC
  FM260500 20010KT P6SM FEW140 SCT250
  FM261500 21012KT P6SM FEW120 SCT200
  FM262000 30012KT P6SM SCT080 BKN150


KDFW 251722Z 2518/2624 20010KT P6SM SKC
  FM261800 19016KT P6SM SCT250


KDTW 251738Z 2518/2624 27015G23KT P6SM SCT025
  FM252000 28015G25KT P6SM FEW040
  FM260000 29012KT P6SM SKC
  FM260300 27006KT P6SM SKC
  FM261500 30012KT P6SM FEW050


KEWR 251931Z 2520/2624 26012G20KT P6SM SCT050
  FM252300 25012KT P6SM BKN050
  FM260900 28012G20KT P6SM SCT050
  FM261500 30018G28KT P6SM SCT050
  FM262200 30016G27KT P6SM FEW050


KFLL 251820Z 2518/2618 04010G19KT P6SM SCT045
  FM252100 01008KT P6SM SKC
  FM260400 35005KT P6SM FEW250
  FM261400 03009KT P6SM FEW250


KIAD 251730Z 2518/2624 25010KT P6SM FEW250
  FM261300 29009G18KT P6SM SKC
  FM261500 30014G25KT P6SM SKC
  FM262300 30008KT P6SM SKC


KIAH 251727Z 2518/2624 VRB04KT P6SM SKC
  FM261900 18008KT P6SM SKC


KJFK 251931Z 2520/2624 23014G20KT P6SM SCT050
  FM252300 26014KT P6SM BKN050
  FM260900 29014G22KT P6SM SCT050
  FM261500 30020G30KT P6SM SCT050
  FM262200 29016G27KT P6SM FEW050


KLAS 251730Z 2518/2618 16010G18KT P6SM FEW100
  FM252000 20015G25KT P6SM SCT100
  FM260300 21010KT P6SM SCT100


KLAX 251741Z 2518/2624 25005KT P6SM SCT100 SCT200
  FM252100 26013KT P6SM SCT100 BKN200
  FM260300 26008KT P6SM SCT150
  FM260900 30004KT P6SM SCT015
  TEMPO 2610/2614 P6SM BKN015
  FM261600 28004KT 5SM HZ OVC020
  FM262100 26010KT P6SM SCT250


KLGA 251931Z 2520/2618 24012G20KT P6SM SCT050
  FM252300 25012KT P6SM BKN050
  FM260900 29014G22KT P6SM SCT050
  FM261500 30020G30KT P6SM SCT050


KMCO 251720Z 2518/2618 34010KT P6SM FEW040
  FM260000 33002KT P6SM SKC
  FM261400 36007KT P6SM SKC


KMDW 251722Z 2518/2618 30012G18KT P6SM FEW250
  FM252000 30016G23KT P6SM FEW100
  FM252300 29010KT P6SM FEW250
  FM260700 32007KT P6SM SKC
  FM261300 30003KT P6SM FEW250


KMEM 251720Z 2518/2618 27006KT P6SM SCT050
  FM260000 00000KT P6SM SKC
  TEMPO 2609/2612 5SM BR
  FM261500 20007KT P6SM SCT050


KMIA 251941Z 2520/2618 02009G18KT P6SM FEW035 SCT050
  FM260000 35003KT P6SM SKC
  FM261600 03008KT P6SM FEW250


KMSP 251721Z 2518/2624 30014G22KT P6SM SCT110
  FM252330 32006KT P6SM SKC
  FM261200 12006KT P6SM SCT250
  FM262000 13013KT P6SM BKN080


KORD 251722Z 2518/2624 31012G18KT P6SM FEW250
  FM252000 31016G23KT P6SM FEW100
  FM252300 30010KT P6SM FEW250
  FM260700 32007KT P6SM SKC
  FM261300 VRB03KT P6SM FEW250
  FM261900 16007KT P6SM FEW100


KPDX 251739Z 2518/2618 12014G25KT P6SM -SHRA SCT050 BKN080
  FM252100 19022G40KT P6SM -SHRA SCT025 OVC050
  TEMPO 2522/2602 4SM SHRA BKN025 OVC040
  FM260200 20017G28KT P6SM -SHRA BKN025 OVC050
  FM260500 23012G22KT P6SM -SHRA BKN030 BKN050
  FM261000 22008KT P6SM -SHRA BKN030 OVC050


KPHL 251727Z 2518/2624 25012G18KT P6SM FEW040
  FM252300 27010KT P6SM SCT050
  FM261300 29018G28KT P6SM SCT050


KPHX 251720Z 2518/2618 11007KT P6SM FEW100 SCT200
  FM252100 26005KT P6SM SCT100 BKN200
  FM260600 10006KT P6SM FEW120 SCT200


KPIT 251808Z 2518/2624 23012G24KT P6SM BKN040
  FM252200 26008G16KT P6SM SKC
  FM260600 30010KT P6SM BKN025
  FM261400 28012G20KT P6SM BKN035


KSAN 251721Z 2518/2624 30005KT P6SM SCT012 BKN100
  FM252000 29010KT P6SM SCT015 SCT070
  FM260200 VRB04KT P6SM SCT015
  FM260500 VRB03KT P6SM BKN015
  FM260900 VRB04KT P6SM OVC018
  FM261900 28010KT P6SM SCT025


KSEA 251735Z 2518/2624 VRB05KT P6SM SCT030 BKN090
  TEMPO 2518/2521 -RA BKN030 OVC080
  FM252100 06008KT P6SM -RA SCT022 OVC045
  TEMPO 2521/2601 4SM -RA BR OVC022
  FM260100 20020G30KT P6SM -RA OVC022
  TEMPO 2604/2608 20030G40KT
  FM261300 22014G22KT P6SM -SHRA BKN015 BKN035


KSFO 251736Z 2518/2624 15008KT P6SM VCSH FEW012 SCT025 BKN035
  TEMPO 2518/2520 BKN030
  FM252100 24015G25KT P6SM VCSH SCT025 BKN050
  FM260200 26010KT P6SM SCT050 BKN250
  FM260600 27004KT P6SM SCT250
  FM262100 30012KT P6SM FEW250


KSLC 251724Z 2518/2624 16012G22KT P6SM SKC
  FM251900 17020G30KT P6SM FEW090 FEW120
  FM260100 17013G20KT P6SM SCT090
  FM261000 32010G18KT P6SM VCSH SCT050 BKN070
  FM261400 34008KT P6SM VCSH BKN060


KSTL 251720Z 2518/2624 34006KT P6SM SKC
  FM260000 VRB03KT P6SM SKC
  FM261600 13008KT P6SM SCT020


KTPA 251726Z 2518/2618 36006KT P6SM SKC
  FM260200 02003KT P6SM SKC
  FM261500 05006KT P6SM SKC



Page loaded:  19:41 UTC  |   12:41 PM Pacific  |   01:41 PM Mountain  |   02:41 PM Central  |   03:41 PM Eastern

 

ADVISORIES

FORECASTS

FORECASTS

OBSERVATIONS

USER TOOLS

ABOUT US